Augusta, Maine
Current Conditions -  °F | °C
As of 3:53 AM on Friday 19 Dec 2014 (Local Time) from KAUG Reporting Station
Clear Clear  
Wind Chill: 21°   Ceiling: Unl
Heat Index: 29°   Visibility: 10mi
Dew Point: 20°   Wind: 8mph
Humidity: 69%   Direction: 310°NW
Pressure: 29.79"   Gusts: NA
Location:  44.32°N, 69.78°W
Report Text: KAUG 190853Z AUTO 31007KT 10SM CLR M02/M07 A2979 RMK AO2 SLP091 T10171067 50003
Loading
Personal Weather Stations






























Interactive Weather Map New forecast layout! Learn more

10-Day Weather Forecast

Advertisements
Track Severe Weather on mobile